sensor_id;sensor_type;location;lat;lon;timestamp;temperature;humidity
78767;SHT31;68092;51.982;5.680;2024-03-23T00:54:18;13.5;61.4
78767;SHT31;68092;51.982;5.680;2024-03-23T00:56:46;13.5;61.3
78767;SHT31;68092;51.982;5.680;2024-03-23T00:59:14;13.5;61.5
78767;SHT31;68092;51.982;5.680;2024-03-23T01:01:43;13.5;61.3
78767;SHT31;68092;51.982;5.680;2024-03-23T01:04:11;13.5;61.2
78767;SHT31;68092;51.982;5.680;2024-03-23T01:06:40;13.5;61.2
78767;SHT31;68092;51.982;5.680;2024-03-23T01:09:08;13.4;61.3
78767;SHT31;68092;51.982;5.680;2024-03-23T01:11:37;13.4;61.2
78767;SHT31;68092;51.982;5.680;2024-03-23T01:14:09;13.4;61.3
78767;SHT31;68092;51.982;5.680;2024-03-23T01:16:37;13.4;61.3
78767;SHT31;68092;51.982;5.680;2024-03-23T01:19:06;13.4;61.4
78767;SHT31;68092;51.982;5.680;2024-03-23T01:21:35;13.4;61.3
78767;SHT31;68092;51.982;5.680;2024-03-23T01:24:04;13.4;61.4
78767;SHT31;68092;51.982;5.680;2024-03-23T01:26:33;13.4;61.4
78767;SHT31;68092;51.982;5.680;2024-03-23T01:29:01;13.4;61.6
78767;SHT31;68092;51.982;5.680;2024-03-23T01:31:31;13.4;61.5
78767;SHT31;68092;51.982;5.680;2024-03-23T01:34:00;13.4;61.6
78767;SHT31;68092;51.982;5.680;2024-03-23T01:36:29;13.4;61.5
78767;SHT31;68092;51.982;5.680;2024-03-23T01:38:58;13.4;61.5
78767;SHT31;68092;51.982;5.680;2024-03-23T01:41:26;13.3;61.6
78767;SHT31;68092;51.982;5.680;2024-03-23T01:43:55;13.3;61.6
78767;SHT31;68092;51.982;5.680;2024-03-23T01:46:24;13.3;61.7
78767;SHT31;68092;51.982;5.680;2024-03-23T01:48:54;13.3;61.6
78767;SHT31;68092;51.982;5.680;2024-03-23T01:51:24;13.3;61.8
78767;SHT31;68092;51.982;5.680;2024-03-23T01:53:54;13.3;61.8
78767;SHT31;68092;51.982;5.680;2024-03-23T01:56:24;13.3;61.7
78767;SHT31;68092;51.982;5.680;2024-03-23T01:58:53;13.3;61.8
78767;SHT31;68092;51.982;5.680;2024-03-23T02:01:21;13.4;61.8
78767;SHT31;68092;51.982;5.680;2024-03-23T02:03:50;13.4;61.7
78767;SHT31;68092;51.982;5.680;2024-03-23T02:06:19;13.4;61.7
78767;SHT31;68092;51.982;5.680;2024-03-23T02:08:48;13.4;61.5
78767;SHT31;68092;51.982;5.680;2024-03-23T02:11:17;13.4;61.5
78767;SHT31;68092;51.982;5.680;2024-03-23T02:13:46;13.4;61.6
78767;SHT31;68092;51.982;5.680;2024-03-23T02:16:14;13.4;61.6
78767;SHT31;68092;51.982;5.680;2024-03-23T02:18:43;13.3;61.7
78767;SHT31;68092;51.982;5.680;2024-03-23T02:21:13;13.3;61.7
78767;SHT31;68092;51.982;5.680;2024-03-23T02:23:41;13.3;61.6
78767;SHT31;68092;51.982;5.680;2024-03-23T02:26:10;13.3;61.5
78767;SHT31;68092;51.982;5.680;2024-03-23T02:28:40;13.3;61.2
78767;SHT31;68092;51.982;5.680;2024-03-23T02:31:08;13.3;61.1
78767;SHT31;68092;51.982;5.680;2024-03-23T02:33:37;13.3;60.9
78767;SHT31;68092;51.982;5.680;2024-03-23T02:36:06;13.3;60.8
78767;SHT31;68092;51.982;5.680;2024-03-23T02:38:35;13.3;60.7
78767;SHT31;68092;51.982;5.680;2024-03-23T02:41:05;13.3;60.5
78767;SHT31;68092;51.982;5.680;2024-03-23T02:43:36;13.3;60.6
78767;SHT31;68092;51.982;5.680;2024-03-23T02:46:04;13.3;60.6
78767;SHT31;68092;51.982;5.680;2024-03-23T02:48:35;13.2;60.6
78767;SHT31;68092;51.982;5.680;2024-03-23T02:51:04;13.2;60.7
78767;SHT31;68092;51.982;5.680;2024-03-23T02:53:33;13.2;60.6
78767;SHT31;68092;51.982;5.680;2024-03-23T02:56:02;13.2;60.7
78767;SHT31;68092;51.982;5.680;2024-03-23T02:58:30;13.1;60.6
78767;SHT31;68092;51.982;5.680;2024-03-23T03:00:59;13.1;60.5
78767;SHT31;68092;51.982;5.680;2024-03-23T03:03:29;13.1;60.4
78767;SHT31;68092;51.982;5.680;2024-03-23T03:06:00;13.1;60.3
78767;SHT31;68092;51.982;5.680;2024-03-23T03:08:28;13.1;60.3
78767;SHT31;68092;51.982;5.680;2024-03-23T03:10:58;13.0;60.2
78767;SHT31;68092;51.982;5.680;2024-03-23T03:13:28;13.0;60.2
78767;SHT31;68092;51.982;5.680;2024-03-23T03:15:59;13.0;60.2
78767;SHT31;68092;51.982;5.680;2024-03-23T03:18:27;12.9;60.2
78767;SHT31;68092;51.982;5.680;2024-03-23T03:20:56;12.9;60.3
78767;SHT31;68092;51.982;5.680;2024-03-23T03:23:25;12.9;60.5
78767;SHT31;68092;51.982;5.680;2024-03-23T03:25:54;12.9;60.5
78767;SHT31;68092;51.982;5.680;2024-03-23T03:28:23;12.9;60.6
78767;SHT31;68092;51.982;5.680;2024-03-23T03:30:56;12.8;60.6
78767;SHT31;68092;51.982;5.680;2024-03-23T03:33:25;12.8;60.6
78767;SHT31;68092;51.982;5.680;2024-03-23T03:35:55;12.8;60.7
78767;SHT31;68092;51.982;5.680;2024-03-23T03:38:25;12.8;60.5
78767;SHT31;68092;51.982;5.680;2024-03-23T03:40:53;12.8;60.3
78767;SHT31;68092;51.982;5.680;2024-03-23T03:43:22;12.8;60.3
78767;SHT31;68092;51.982;5.680;2024-03-23T03:45:53;12.8;60.0
78767;SHT31;68092;51.982;5.680;2024-03-23T03:48:22;12.8;60.0
78767;SHT31;68092;51.982;5.680;2024-03-23T03:50:52;12.8;59.6
78767;SHT31;68092;51.982;5.680;2024-03-23T03:53:21;12.8;59.5
78767;SHT31;68092;51.982;5.680;2024-03-23T03:55:49;12.8;59.3
78767;SHT31;68092;51.982;5.680;2024-03-23T03:58:17;12.7;59.2
78767;SHT31;68092;51.982;5.680;2024-03-23T04:00:46;12.7;59.2
78767;SHT31;68092;51.982;5.680;2024-03-23T04:03:14;12.7;59.0
78767;SHT31;68092;51.982;5.680;2024-03-23T04:05:43;12.7;58.9
78767;SHT31;68092;51.982;5.680;2024-03-23T04:08:11;12.7;58.7
78767;SHT31;68092;51.982;5.680;2024-03-23T04:10:40;12.7;58.6
78767;SHT31;68092;51.982;5.680;2024-03-23T04:13:09;12.6;58.5
78767;SHT31;68092;51.982;5.680;2024-03-23T04:15:38;12.6;58.6
78767;SHT31;68092;51.982;5.680;2024-03-23T04:18:07;12.6;58.7
78767;SHT31;68092;51.982;5.680;2024-03-23T04:20:35;12.6;58.7
78767;SHT31;68092;51.982;5.680;2024-03-23T04:23:04;12.6;58.5
78767;SHT31;68092;51.982;5.680;2024-03-23T04:25:32;12.5;58.5
78767;SHT31;68092;51.982;5.680;2024-03-23T04:28:01;12.5;58.2
78767;SHT31;68092;51.982;5.680;2024-03-23T04:30:29;12.5;58.3
78767;SHT31;68092;51.982;5.680;2024-03-23T04:32:58;12.4;58.2
78767;SHT31;68092;51.982;5.680;2024-03-23T04:35:27;12.4;58.2
78767;SHT31;68092;51.982;5.680;2024-03-23T04:37:56;12.4;58.3
78767;SHT31;68092;51.982;5.680;2024-03-23T04:40:25;12.4;58.3
78767;SHT31;68092;51.982;5.680;2024-03-23T04:42:53;12.3;57.8
78767;SHT31;68092;51.982;5.680;2024-03-23T04:45:22;12.3;58.0
78767;SHT31;68092;51.982;5.680;2024-03-23T04:47:50;12.3;57.7
78767;SHT31;68092;51.982;5.680;2024-03-23T04:50:21;12.3;57.5
78767;SHT31;68092;51.982;5.680;2024-03-23T04:52:50;12.3;57.7
78767;SHT31;68092;51.982;5.680;2024-03-23T04:55:18;12.3;57.6
78767;SHT31;68092;51.982;5.680;2024-03-23T04:57:49;12.2;57.6
78767;SHT31;68092;51.982;5.680;2024-03-23T05:00:18;12.2;57.4
78767;SHT31;68092;51.982;5.680;2024-03-23T05:02:47;12.2;57.5
78767;SHT31;68092;51.982;5.680;2024-03-23T05:05:16;12.2;57.6
78767;SHT31;68092;51.982;5.680;2024-03-23T05:07:44;12.1;57.4
78767;SHT31;68092;51.982;5.680;2024-03-23T05:10:15;12.1;57.5
78767;SHT31;68092;51.982;5.680;2024-03-23T05:12:44;12.1;57.7
78767;SHT31;68092;51.982;5.680;2024-03-23T05:15:13;12.1;57.5
78767;SHT31;68092;51.982;5.680;2024-03-23T05:17:41;12.1;57.7
78767;SHT31;68092;51.982;5.680;2024-03-23T05:20:10;12.0;57.7
78767;SHT31;68092;51.982;5.680;2024-03-23T05:22:39;12.0;57.5
78767;SHT31;68092;51.982;5.680;2024-03-23T05:25:08;12.0;57.3
78767;SHT31;68092;51.982;5.680;2024-03-23T05:27:37;12.0;57.5
78767;SHT31;68092;51.982;5.680;2024-03-23T05:30:10;12.0;57.6
78767;SHT31;68092;51.982;5.680;2024-03-23T05:32:40;12.0;57.7
78767;SHT31;68092;51.982;5.680;2024-03-23T05:35:09;11.9;57.7
78767;SHT31;68092;51.982;5.680;2024-03-23T05:37:40;11.9;57.4
78767;SHT31;68092;51.982;5.680;2024-03-23T05:40:09;11.9;57.5
78767;SHT31;68092;51.982;5.680;2024-03-23T05:42:39;11.9;57.5
78767;SHT31;68092;51.982;5.680;2024-03-23T05:45:08;11.9;57.4
78767;SHT31;68092;51.982;5.680;2024-03-23T05:47:37;11.9;57.2
78767;SHT31;68092;51.982;5.680;2024-03-23T05:50:06;11.8;57.3
78767;SHT31;68092;51.982;5.680;2024-03-23T05:52:37;11.8;57.3
78767;SHT31;68092;51.982;5.680;2024-03-23T05:55:06;11.8;57.3
78767;SHT31;68092;51.982;5.680;2024-03-23T05:57:35;11.8;57.1
78767;SHT31;68092;51.982;5.680;2024-03-23T06:00:04;11.7;57.3
78767;SHT31;68092;51.982;5.680;2024-03-23T06:02:36;11.7;57.5
78767;SHT31;68092;51.982;5.680;2024-03-23T06:05:06;11.7;57.7
78767;SHT31;68092;51.982;5.680;2024-03-23T06:07:35;11.7;57.9
78767;SHT31;68092;51.982;5.680;2024-03-23T06:10:03;11.7;58.2
78767;SHT31;68092;51.982;5.680;2024-03-23T06:12:32;11.6;58.3
78767;SHT31;68092;51.982;5.680;2024-03-23T06:15:01;11.6;58.1
78767;SHT31;68092;51.982;5.680;2024-03-23T06:17:29;11.6;58.4
78767;SHT31;68092;51.982;5.680;2024-03-23T06:19:58;11.6;58.2
78767;SHT31;68092;51.982;5.680;2024-03-23T06:22:26;11.6;58.3
78767;SHT31;68092;51.982;5.680;2024-03-23T06:24:55;11.5;58.3
78767;SHT31;68092;51.982;5.680;2024-03-23T06:27:23;11.5;59.0
78767;SHT31;68092;51.982;5.680;2024-03-23T06:29:52;11.5;58.9
78767;SHT31;68092;51.982;5.680;2024-03-23T06:32:21;11.5;58.5
78767;SHT31;68092;51.982;5.680;2024-03-23T06:34:49;11.5;58.8
78767;SHT31;68092;51.982;5.680;2024-03-23T06:37:18;11.5;59.3
78767;SHT31;68092;51.982;5.680;2024-03-23T06:39:47;11.5;58.6
78767;SHT31;68092;51.982;5.680;2024-03-23T06:42:18;11.5;58.2
78767;SHT31;68092;51.982;5.680;2024-03-23T06:44:48;11.5;58.6
78767;SHT31;68092;51.982;5.680;2024-03-23T06:47:17;11.5;58.5
78767;SHT31;68092;51.982;5.680;2024-03-23T06:49:45;11.5;59.0
78767;SHT31;68092;51.982;5.680;2024-03-23T06:52:14;11.5;58.9
78767;SHT31;68092;51.982;5.680;2024-03-23T06:54:43;11.6;58.8
78767;SHT31;68092;51.982;5.680;2024-03-23T06:57:12;11.6;58.2
78767;SHT31;68092;51.982;5.680;2024-03-23T06:59:41;11.6;59.0
78767;SHT31;68092;51.982;5.680;2024-03-23T07:02:09;11.6;58.8
78767;SHT31;68092;51.982;5.680;2024-03-23T07:04:38;11.6;58.6
78767;SHT31;68092;51.982;5.680;2024-03-23T07:07:07;11.6;58.6
78767;SHT31;68092;51.982;5.680;2024-03-23T07:09:36;11.6;58.6
78767;SHT31;68092;51.982;5.680;2024-03-23T07:12:05;11.6;59.1
78767;SHT31;68092;51.982;5.680;2024-03-23T07:14:34;11.6;59.1
78767;SHT31;68092;51.982;5.680;2024-03-23T07:17:02;11.7;58.8
78767;SHT31;68092;51.982;5.680;2024-03-23T07:19:30;11.7;59.2
78767;SHT31;68092;51.982;5.680;2024-03-23T07:21:59;11.7;58.9
78767;SHT31;68092;51.982;5.680;2024-03-23T07:24:27;11.7;58.8
78767;SHT31;68092;51.982;5.680;2024-03-23T07:26:57;11.7;59.0
78767;SHT31;68092;51.982;5.680;2024-03-23T07:29:25;11.7;58.8
78767;SHT31;68092;51.982;5.680;2024-03-23T07:31:54;11.7;59.0
78767;SHT31;68092;51.982;5.680;2024-03-23T07:34:22;11.7;59.9
78767;SHT31;68092;51.982;5.680;2024-03-23T07:36:51;11.7;59.8
78767;SHT31;68092;51.982;5.680;2024-03-23T07:39:19;11.7;59.0
78767;SHT31;68092;51.982;5.680;2024-03-23T07:41:48;11.7;59.5
78767;SHT31;68092;51.982;5.680;2024-03-23T07:44:16;11.8;59.0
78767;SHT31;68092;51.982;5.680;2024-03-23T07:46:47;11.8;59.4
78767;SHT31;68092;51.982;5.680;2024-03-23T07:49:17;11.8;58.8
78767;SHT31;68092;51.982;5.680;2024-03-23T07:51:46;11.8;58.9
78767;SHT31;68092;51.982;5.680;2024-03-23T07:54:14;11.8;59.4
78767;SHT31;68092;51.982;5.680;2024-03-23T07:56:43;11.8;59.3
78767;SHT31;68092;51.982;5.680;2024-03-23T07:59:12;11.8;59.0
78767;SHT31;68092;51.982;5.680;2024-03-23T08:01:41;11.8;58.7
78767;SHT31;68092;51.982;5.680;2024-03-23T08:04:11;11.8;58.7
78767;SHT31;68092;51.982;5.680;2024-03-23T08:06:40;11.8;58.9
78767;SHT31;68092;51.982;5.680;2024-03-23T08:09:08;11.8;58.8
78767;SHT31;68092;51.982;5.680;2024-03-23T08:11:39;11.8;59.1
78767;SHT31;68092;51.982;5.680;2024-03-23T08:14:10;11.8;58.9
78767;SHT31;68092;51.982;5.680;2024-03-23T08:16:39;11.8;59.1
78767;SHT31;68092;51.982;5.680;2024-03-23T08:19:08;11.8;58.1
78767;SHT31;68092;51.982;5.680;2024-03-23T08:21:39;11.8;57.7
78767;SHT31;68092;51.982;5.680;2024-03-23T08:24:08;11.8;57.8
78767;SHT31;68092;51.982;5.680;2024-03-23T08:26:36;11.8;58.0
78767;SHT31;68092;51.982;5.680;2024-03-23T08:29:06;11.8;58.8
78767;SHT31;68092;51.982;5.680;2024-03-23T08:31:35;11.8;57.7
78767;SHT31;68092;51.982;5.680;2024-03-23T08:34:03;11.8;57.3
78767;SHT31;68092;51.982;5.680;2024-03-23T08:36:32;11.9;57.5
78767;SHT31;68092;51.982;5.680;2024-03-23T08:39:00;11.9;57.5
78767;SHT31;68092;51.982;5.680;2024-03-23T08:41:29;11.9;58.0
78767;SHT31;68092;51.982;5.680;2024-03-23T08:43:58;11.9;57.8
78767;SHT31;68092;51.982;5.680;2024-03-23T08:46:28;11.9;57.4
78767;SHT31;68092;51.982;5.680;2024-03-23T08:48:58;12.0;57.6
78767;SHT31;68092;51.982;5.680;2024-03-23T08:51:27;12.0;57.7
78767;SHT31;68092;51.982;5.680;2024-03-23T08:53:56;12.0;58.1
78767;SHT31;68092;51.982;5.680;2024-03-23T08:56:24;12.0;58.4
78767;SHT31;68092;51.982;5.680;2024-03-23T08:58:53;12.1;57.7
78767;SHT31;68092;51.982;5.680;2024-03-23T09:01:21;12.1;57.7
78767;SHT31;68092;51.982;5.680;2024-03-23T09:03:50;12.1;57.7
78767;SHT31;68092;51.982;5.680;2024-03-23T09:06:18;12.1;56.4
78767;SHT31;68092;51.982;5.680;2024-03-23T09:08:47;12.1;56.6
78767;SHT31;68092;51.982;5.680;2024-03-23T09:11:17;12.1;56.7
78767;SHT31;68092;51.982;5.680;2024-03-23T09:13:45;12.1;56.7
78767;SHT31;68092;51.982;5.680;2024-03-23T09:16:15;12.1;56.8
78767;SHT31;68092;51.982;5.680;2024-03-23T09:18:44;12.0;57.5
78767;SHT31;68092;51.982;5.680;2024-03-23T09:21:13;12.0;58.1
78767;SHT31;68092;51.982;5.680;2024-03-23T09:23:43;12.0;58.1
78767;SHT31;68092;51.982;5.680;2024-03-23T09:26:12;12.0;58.5
78767;SHT31;68092;51.982;5.680;2024-03-23T09:28:41;12.0;57.7
78767;SHT31;68092;51.982;5.680;2024-03-23T09:31:10;12.0;57.4
78767;SHT31;68092;51.982;5.680;2024-03-23T09:33:41;12.0;57.3
78767;SHT31;68092;51.982;5.680;2024-03-23T09:36:10;12.0;57.2
78767;SHT31;68092;51.982;5.680;2024-03-23T09:38:38;12.0;57.4
78767;SHT31;68092;51.982;5.680;2024-03-23T09:41:09;12.0;57.0
78767;SHT31;68092;51.982;5.680;2024-03-23T09:43:38;12.0;56.1
78767;SHT31;68092;51.982;5.680;2024-03-23T09:46:07;12.0;55.5
78767;SHT31;68092;51.982;5.680;2024-03-23T09:48:36;12.0;55.0
78767;SHT31;68092;51.982;5.680;2024-03-23T09:51:09;12.0;55.0
78767;SHT31;68092;51.982;5.680;2024-03-23T09:53:37;12.1;56.0
78767;SHT31;68092;51.982;5.680;2024-03-23T09:56:07;12.1;56.2
78767;SHT31;68092;51.982;5.680;2024-03-23T09:58:36;12.1;55.8
78767;SHT31;68092;51.982;5.680;2024-03-23T10:01:05;12.1;54.8
78767;SHT31;68092;51.982;5.680;2024-03-23T10:03:44;12.1;55.0
78767;SHT31;68092;51.982;5.680;2024-03-23T10:06:13;12.2;55.8
78767;SHT31;68092;51.982;5.680;2024-03-23T10:08:42;12.2;56.6
78767;SHT31;68092;51.982;5.680;2024-03-23T10:11:18;12.2;55.2
78767;SHT31;68092;51.982;5.680;2024-03-23T10:13:47;12.3;54.4
78767;SHT31;68092;51.982;5.680;2024-03-23T10:16:24;12.3;54.5
78767;SHT31;68092;51.982;5.680;2024-03-23T10:18:53;12.3;53.5
78767;SHT31;68092;51.982;5.680;2024-03-23T10:21:22;12.3;53.2
78767;SHT31;68092;51.982;5.680;2024-03-23T10:23:50;12.3;54.2
78767;SHT31;68092;51.982;5.680;2024-03-23T10:26:22;12.2;55.0
78767;SHT31;68092;51.982;5.680;2024-03-23T10:28:53;12.1;56.6
78767;SHT31;68092;51.982;5.680;2024-03-23T10:31:23;12.1;57.5
78767;SHT31;68092;51.982;5.680;2024-03-23T10:33:53;12.1;57.2
78767;SHT31;68092;51.982;5.680;2024-03-23T10:36:23;12.1;58.0
78767;SHT31;68092;51.982;5.680;2024-03-23T10:38:54;12.0;57.9
78767;SHT31;68092;51.982;5.680;2024-03-23T10:41:26;12.0;56.7
78767;SHT31;68092;51.982;5.680;2024-03-23T10:43:58;12.0;56.0
78767;SHT31;68092;51.982;5.680;2024-03-23T10:46:26;12.0;55.9
78767;SHT31;68092;51.982;5.680;2024-03-23T10:48:56;12.0;55.4
78767;SHT31;68092;51.982;5.680;2024-03-23T10:51:25;11.9;54.7
78767;SHT31;68092;51.982;5.680;2024-03-23T10:53:55;11.9;55.4
78767;SHT31;68092;51.982;5.680;2024-03-23T10:56:27;11.9;56.7
78767;SHT31;68092;51.982;5.680;2024-03-23T10:59:03;11.9;55.4
78767;SHT31;68092;51.982;5.680;2024-03-23T11:01:34;11.9;54.4
78767;SHT31;68092;51.982;5.680;2024-03-23T11:04:03;11.9;54.6
78767;SHT31;68092;51.982;5.680;2024-03-23T11:06:36;11.9;53.8
78767;SHT31;68092;51.982;5.680;2024-03-23T11:09:39;11.9;55.2
78767;SHT31;68092;51.982;5.680;2024-03-23T11:12:30;11.9;55.5
78767;SHT31;68092;51.982;5.680;2024-03-23T11:15:04;11.9;54.9
78767;SHT31;68092;51.982;5.680;2024-03-23T11:17:33;12.0;55.8
78767;SHT31;68092;51.982;5.680;2024-03-23T11:20:03;12.0;56.2
78767;SHT31;68092;51.982;5.680;2024-03-23T11:22:43;12.0;55.0
78767;SHT31;68092;51.982;5.680;2024-03-23T11:25:14;12.1;54.2
78767;SHT31;68092;51.982;5.680;2024-03-23T11:27:43;12.1;53.8
78767;SHT31;68092;51.982;5.680;2024-03-23T11:30:16;12.1;53.7
78767;SHT31;68092;51.982;5.680;2024-03-23T11:32:47;12.2;55.2
78767;SHT31;68092;51.982;5.680;2024-03-23T11:35:28;12.2;55.0
78767;SHT31;68092;51.982;5.680;2024-03-23T11:38:06;12.2;54.5
78767;SHT31;68092;51.982;5.680;2024-03-23T11:40:36;12.2;54.5
78767;SHT31;68092;51.982;5.680;2024-03-23T11:43:07;12.3;54.6
78767;SHT31;68092;51.982;5.680;2024-03-23T11:45:37;12.3;53.5
78767;SHT31;68092;51.982;5.680;2024-03-23T11:48:08;12.4;53.7
78767;SHT31;68092;51.982;5.680;2024-03-23T11:50:39;12.4;54.0
78767;SHT31;68092;51.982;5.680;2024-03-23T11:53:15;12.4;54.7
78767;SHT31;68092;51.982;5.680;2024-03-23T11:55:46;12.4;54.3
78767;SHT31;68092;51.982;5.680;2024-03-23T11:58:16;12.4;53.1
78767;SHT31;68092;51.982;5.680;2024-03-23T12:00:52;12.4;53.3
78767;SHT31;68092;51.982;5.680;2024-03-23T12:03:20;12.4;52.6
78767;SHT31;68092;51.982;5.680;2024-03-23T12:05:54;12.4;53.0
78767;SHT31;68092;51.982;5.680;2024-03-23T12:08:28;12.5;52.5
78767;SHT31;68092;51.982;5.680;2024-03-23T12:11:07;12.5;52.4
78767;SHT31;68092;51.982;5.680;2024-03-23T12:13:41;12.5;52.5
78767;SHT31;68092;51.982;5.680;2024-03-23T12:16:12;12.5;51.9
78767;SHT31;68092;51.982;5.680;2024-03-23T12:18:42;12.5;52.3
78767;SHT31;68092;51.982;5.680;2024-03-23T12:21:11;12.5;52.7
78767;SHT31;68092;51.982;5.680;2024-03-23T12:23:41;12.5;52.8
78767;SHT31;68092;51.982;5.680;2024-03-23T12:26:11;12.6;52.2
78767;SHT31;68092;51.982;5.680;2024-03-23T12:28:40;12.6;51.8
78767;SHT31;68092;51.982;5.680;2024-03-23T12:31:08;12.6;51.3
78767;SHT31;68092;51.982;5.680;2024-03-23T12:33:38;12.6;50.3
78767;SHT31;68092;51.982;5.680;2024-03-23T12:36:07;12.7;50.5
78767;SHT31;68092;51.982;5.680;2024-03-23T12:38:36;12.7;49.9
78767;SHT31;68092;51.982;5.680;2024-03-23T12:41:08;12.7;50.4
78767;SHT31;68092;51.982;5.680;2024-03-23T12:43:37;12.7;52.2
78767;SHT31;68092;51.982;5.680;2024-03-23T12:46:06;12.7;53.5
78767;SHT31;68092;51.982;5.680;2024-03-23T12:48:34;12.7;53.6
78767;SHT31;68092;51.982;5.680;2024-03-23T12:51:03;12.7;54.8
78767;SHT31;68092;51.982;5.680;2024-03-23T12:53:32;12.7;52.5
78767;SHT31;68092;51.982;5.680;2024-03-23T12:56:00;12.7;52.1
78767;SHT31;68092;51.982;5.680;2024-03-23T12:58:30;12.7;50.4
78767;SHT31;68092;51.982;5.680;2024-03-23T13:01:00;12.7;50.7
78767;SHT31;68092;51.982;5.680;2024-03-23T13:03:30;12.7;51.7
78767;SHT31;68092;51.982;5.680;2024-03-23T13:05:59;12.7;50.6
78767;SHT31;68092;51.982;5.680;2024-03-23T13:08:31;12.7;49.8
78767;SHT31;68092;51.982;5.680;2024-03-23T13:11:00;12.8;49.2
78767;SHT31;68092;51.982;5.680;2024-03-23T13:13:31;12.8;49.5
78767;SHT31;68092;51.982;5.680;2024-03-23T13:16:00;12.8;49.8
78767;SHT31;68092;51.982;5.680;2024-03-23T13:18:29;12.8;50.2
78767;SHT31;68092;51.982;5.680;2024-03-23T13:20:58;12.8;49.2
78767;SHT31;68092;51.982;5.680;2024-03-23T13:23:27;12.8;49.5
78767;SHT31;68092;51.982;5.680;2024-03-23T13:25:57;12.8;50.3
78767;SHT31;68092;51.982;5.680;2024-03-23T13:28:25;12.8;50.1
78767;SHT31;68092;51.982;5.680;2024-03-23T13:30:56;12.8;49.4
78767;SHT31;68092;51.982;5.680;2024-03-23T13:33:27;12.8;50.2
78767;SHT31;68092;51.982;5.680;2024-03-23T13:35:56;12.8;49.9
78767;SHT31;68092;51.982;5.680;2024-03-23T13:38:25;12.8;50.4
78767;SHT31;68092;51.982;5.680;2024-03-23T13:40:55;12.8;50.2
78767;SHT31;68092;51.982;5.680;2024-03-23T13:43:26;12.8;49.5
78767;SHT31;68092;51.982;5.680;2024-03-23T13:45:57;12.8;49.5
78767;SHT31;68092;51.982;5.680;2024-03-23T13:48:27;12.7;48.9
78767;SHT31;68092;51.982;5.680;2024-03-23T13:51:00;12.7;49.5
78767;SHT31;68092;51.982;5.680;2024-03-23T13:53:29;12.7;49.1
78767;SHT31;68092;51.982;5.680;2024-03-23T13:55:59;12.7;49.5
78767;SHT31;68092;51.982;5.680;2024-03-23T13:58:29;12.7;49.8
78767;SHT31;68092;51.982;5.680;2024-03-23T14:00:58;12.7;51.4
78767;SHT31;68092;51.982;5.680;2024-03-23T14:03:26;12.7;51.3
78767;SHT31;68092;51.982;5.680;2024-03-23T14:05:58;12.7;52.5
78767;SHT31;68092;51.982;5.680;2024-03-23T14:08:29;12.6;51.6
78767;SHT31;68092;51.982;5.680;2024-03-23T14:11:01;12.6;51.6
78767;SHT31;68092;51.982;5.680;2024-03-23T14:13:30;12.6;51.9
78767;SHT31;68092;51.982;5.680;2024-03-23T14:15:59;12.6;50.5
78767;SHT31;68092;51.982;5.680;2024-03-23T14:18:27;12.6;51.1
78767;SHT31;68092;51.982;5.680;2024-03-23T14:21:00;12.6;50.1
78767;SHT31;68092;51.982;5.680;2024-03-23T14:23:31;12.6;50.3
78767;SHT31;68092;51.982;5.680;2024-03-23T14:26:01;12.6;50.5
78767;SHT31;68092;51.982;5.680;2024-03-23T14:28:30;12.5;50.8
78767;SHT31;68092;51.982;5.680;2024-03-23T14:30:58;12.5;52.3
78767;SHT31;68092;51.982;5.680;2024-03-23T14:33:27;12.4;51.4
78767;SHT31;68092;51.982;5.680;2024-03-23T14:35:57;12.4;51.8
78767;SHT31;68092;51.982;5.680;2024-03-23T14:38:26;12.4;53.6
78767;SHT31;68092;51.982;5.680;2024-03-23T14:40:57;12.4;52.9
78767;SHT31;68092;51.982;5.680;2024-03-23T14:43:26;12.4;52.9
78767;SHT31;68092;51.982;5.680;2024-03-23T14:46:08;12.4;52.7
78767;SHT31;68092;51.982;5.680;2024-03-23T14:48:40;12.4;52.2
78767;SHT31;68092;51.982;5.680;2024-03-23T14:51:09;12.4;52.8
78767;SHT31;68092;51.982;5.680;2024-03-23T14:53:40;12.4;52.0
78767;SHT31;68092;51.982;5.680;2024-03-23T14:56:09;12.4;51.9
78767;SHT31;68092;51.982;5.680;2024-03-23T14:58:41;12.4;51.8
78767;SHT31;68092;51.982;5.680;2024-03-23T15:01:12;12.4;52.5
78767;SHT31;68092;51.982;5.680;2024-03-23T15:03:40;12.4;52.2
78767;SHT31;68092;51.982;5.680;2024-03-23T15:06:12;12.4;52.6
78767;SHT31;68092;51.982;5.680;2024-03-23T15:08:41;12.4;52.9
78767;SHT31;68092;51.982;5.680;2024-03-23T15:11:10;12.4;52.8
78767;SHT31;68092;51.982;5.680;2024-03-23T15:13:39;12.4;53.4
78767;SHT31;68092;51.982;5.680;2024-03-23T15:16:07;12.4;53.3
78767;SHT31;68092;51.982;5.680;2024-03-23T15:18:36;12.4;53.9
78767;SHT31;68092;51.982;5.680;2024-03-23T15:21:05;12.5;52.8
78767;SHT31;68092;51.982;5.680;2024-03-23T15:23:38;12.5;52.6
78767;SHT31;68092;51.982;5.680;2024-03-23T15:26:08;12.5;51.0
78767;SHT31;68092;51.982;5.680;2024-03-23T15:28:37;12.5;50.7
78767;SHT31;68092;51.982;5.680;2024-03-23T15:31:14;12.5;50.5
78767;SHT31;68092;51.982;5.680;2024-03-23T15:33:42;12.5;50.6
78767;SHT31;68092;51.982;5.680;2024-03-23T15:36:11;12.5;50.4
78767;SHT31;68092;51.982;5.680;2024-03-23T15:38:39;12.5;49.6
78767;SHT31;68092;51.982;5.680;2024-03-23T15:41:09;12.5;49.6
78767;SHT31;68092;51.982;5.680;2024-03-23T15:43:38;12.5;49.6
78767;SHT31;68092;51.982;5.680;2024-03-23T15:46:10;12.5;48.6
78767;SHT31;68092;51.982;5.680;2024-03-23T15:48:43;12.4;48.4
78767;SHT31;68092;51.982;5.680;2024-03-23T15:51:13;12.4;48.7
78767;SHT31;68092;51.982;5.680;2024-03-23T15:53:42;12.4;49.0
78767;SHT31;68092;51.982;5.680;2024-03-23T15:56:11;12.4;49.2
78767;SHT31;68092;51.982;5.680;2024-03-23T15:58:41;12.3;50.2
78767;SHT31;68092;51.982;5.680;2024-03-23T16:01:10;12.3;50.3
78767;SHT31;68092;51.982;5.680;2024-03-23T16:03:39;12.3;49.9
78767;SHT31;68092;51.982;5.680;2024-03-23T16:06:08;12.3;50.3
78767;SHT31;68092;51.982;5.680;2024-03-23T16:08:37;12.3;51.1
78767;SHT31;68092;51.982;5.680;2024-03-23T16:11:07;12.3;50.2
78767;SHT31;68092;51.982;5.680;2024-03-23T16:13:36;12.3;51.1
78767;SHT31;68092;51.982;5.680;2024-03-23T16:16:09;12.3;50.7
78767;SHT31;68092;51.982;5.680;2024-03-23T16:18:39;12.3;51.5
78767;SHT31;68092;51.982;5.680;2024-03-23T16:21:10;12.4;51.2
78767;SHT31;68092;51.982;5.680;2024-03-23T16:23:38;12.4;51.3
78767;SHT31;68092;51.982;5.680;2024-03-23T16:26:08;12.4;51.8
78767;SHT31;68092;51.982;5.680;2024-03-23T16:28:38;12.4;51.8
78767;SHT31;68092;51.982;5.680;2024-03-23T16:31:09;12.4;50.9
78767;SHT31;68092;51.982;5.680;2024-03-23T16:33:38;12.4;51.1
78767;SHT31;68092;51.982;5.680;2024-03-23T16:36:08;12.4;51.4
78767;SHT31;68092;51.982;5.680;2024-03-23T16:38:39;12.4;51.4
78767;SHT31;68092;51.982;5.680;2024-03-23T16:41:09;12.4;51.1
78767;SHT31;68092;51.982;5.680;2024-03-23T16:43:39;12.4;51.6
78767;SHT31;68092;51.982;5.680;2024-03-23T16:46:09;12.4;51.1
78767;SHT31;68092;51.982;5.680;2024-03-23T16:48:40;12.4;50.8
78767;SHT31;68092;51.982;5.680;2024-03-23T16:51:10;12.5;50.6
78767;SHT31;68092;51.982;5.680;2024-03-23T16:53:39;12.4;50.0
78767;SHT31;68092;51.982;5.680;2024-03-23T16:56:09;12.4;49.6
78767;SHT31;68092;51.982;5.680;2024-03-23T16:58:39;12.4;49.8
78767;SHT31;68092;51.982;5.680;2024-03-23T17:01:09;12.4;50.1
78767;SHT31;68092;51.982;5.680;2024-03-23T17:03:42;12.4;50.4
78767;SHT31;68092;51.982;5.680;2024-03-23T17:06:11;12.4;50.4
78767;SHT31;68092;51.982;5.680;2024-03-23T17:08:41;12.3;50.8
78767;SHT31;68092;51.982;5.680;2024-03-23T17:11:11;12.3;50.5